createdAt,value
2022-10-17T00:00:38.692Z,13.25
2022-10-17T00:03:25.537Z,12.50
2022-10-17T00:05:52.574Z,13.02
2022-10-17T00:08:19.923Z,13.30
2022-10-17T00:10:56.759Z,11.73
2022-10-17T00:13:23.706Z,11.27
2022-10-17T00:15:50.703Z,12.32
2022-10-17T00:18:17.486Z,13.55
2022-10-17T00:20:44.574Z,13.35
2022-10-17T00:23:11.473Z,11.02
2022-10-17T00:25:40.604Z,12.27
2022-10-17T00:28:14.383Z,10.57
2022-10-17T00:30:41.580Z,12.38
2022-10-17T00:33:08.561Z,13.70
2022-10-17T00:35:35.728Z,10.93
2022-10-17T00:38:02.571Z,11.85
2022-10-17T00:40:29.571Z,13.00
2022-10-17T00:42:56.393Z,12.80
2022-10-17T00:45:26.307Z,10.52
2022-10-17T00:48:01.130Z,12.38
2022-10-17T00:50:28.399Z,11.95
2022-10-17T00:52:58.988Z,13.35
2022-10-17T00:55:29.561Z,14.25
2022-10-17T00:57:57.605Z,13.38
2022-10-17T01:00:25.079Z,12.88
2022-10-17T01:02:52.057Z,13.20
2022-10-17T01:05:19.531Z,13.38
2022-10-17T01:07:47.561Z,13.20
2022-10-17T01:10:15.123Z,12.70
2022-10-17T01:12:50.690Z,12.18
2022-10-17T01:15:23.775Z,11.93
2022-10-17T01:18:32.174Z,12.82
2022-10-17T01:21:28.085Z,11.77
2022-10-17T01:24:00.923Z,11.35
2022-10-17T01:26:37.850Z,11.93
2022-10-17T01:29:10.591Z,11.52
2022-10-17T01:32:08.386Z,11.07
2022-10-17T01:34:39.574Z,11.82
2022-10-17T01:37:10.981Z,14.50
2022-10-17T01:39:43.892Z,11.93
2022-10-17T01:42:48.729Z,11.18
2022-10-17T01:45:26.146Z,13.55
2022-10-17T01:47:54.559Z,13.10
2022-10-17T01:50:28.920Z,11.80
2022-10-17T01:53:00.113Z,12.25
2022-10-17T01:55:40.177Z,12.50
2022-10-17T01:58:19.109Z,11.60
2022-10-17T02:00:46.860Z,11.77
2022-10-17T02:03:17.559Z,11.68
2022-10-17T02:05:45.184Z,12.18
2022-10-17T02:08:12.957Z,11.57
2022-10-17T02:10:43.923Z,12.07
2022-10-17T02:13:18.492Z,11.10
2022-10-17T02:15:52.406Z,11.95
2022-10-17T02:18:48.231Z,11.02
2022-10-17T02:21:18.213Z,11.73
2022-10-17T02:24:05.328Z,11.98
2022-10-17T02:26:41.840Z,11.95
2022-10-17T02:29:17.608Z,12.02
2022-10-17T02:31:59.449Z,11.52
2022-10-17T02:34:36.127Z,12.80
2022-10-17T02:37:05.915Z,16.70
2022-10-17T02:39:35.150Z,13.38
2022-10-17T02:42:03.900Z,14.55
2022-10-17T02:44:31.475Z,12.65
2022-10-17T02:47:12.931Z,13.30
2022-10-17T02:49:42.086Z,12.18
2022-10-17T02:52:19.247Z,12.90
2022-10-17T02:54:51.985Z,12.38
2022-10-17T02:57:23.546Z,12.02
2022-10-17T02:59:51.172Z,12.27
2022-10-17T03:02:18.146Z,12.15
2022-10-17T03:04:46.326Z,12.52
2022-10-17T03:07:13.315Z,11.50
2022-10-17T03:09:40.498Z,12.77
2022-10-17T03:12:07.314Z,13.38
2022-10-17T03:14:35.254Z,12.88
2022-10-17T03:17:03.497Z,13.60
2022-10-17T03:19:30.867Z,13.00
2022-10-17T03:21:57.719Z,14.00
2022-10-17T03:24:24.720Z,22.27
2022-10-17T03:26:51.582Z,14.60
2022-10-17T03:29:18.612Z,20.90
2022-10-17T03:31:46.465Z,17.80
2022-10-17T03:34:16.780Z,14.13
2022-10-17T03:36:43.775Z,18.55
2022-10-17T03:39:10.950Z,15.07
2022-10-17T03:41:38.097Z,15.70
2022-10-17T03:44:05.235Z,13.90
2022-10-17T03:46:32.121Z,13.77
2022-10-17T03:49:00.713Z,13.52
2022-10-17T03:51:27.919Z,13.85
2022-10-17T03:54:01.535Z,13.73
2022-10-17T03:56:28.565Z,13.68
2022-10-17T03:59:04.564Z,14.73
2022-10-17T04:01:34.691Z,14.27
2022-10-17T04:04:01.854Z,15.20
2022-10-17T04:06:32.169Z,14.48
2022-10-17T04:09:00.159Z,14.38
2022-10-17T04:11:50.101Z,14.45
2022-10-17T04:14:17.173Z,15.18
2022-10-17T04:16:44.078Z,16.45
2022-10-17T04:19:16.594Z,15.90
2022-10-17T04:21:46.451Z,18.17
2022-10-17T04:24:14.917Z,19.52
2022-10-17T04:26:54.751Z,16.58
2022-10-17T04:29:25.429Z,16.85
2022-10-17T04:31:56.119Z,16.55
2022-10-17T04:34:31.005Z,16.95
2022-10-17T04:36:57.980Z,16.80
2022-10-17T04:39:25.050Z,19.63
2022-10-17T04:41:52.103Z,17.15
2022-10-17T04:44:20.795Z,15.00
2022-10-17T04:46:51.543Z,17.13
2022-10-17T04:49:19.892Z,15.02
2022-10-17T04:51:49.541Z,15.98
2022-10-17T04:54:23.553Z,15.88
2022-10-17T04:56:59.730Z,15.75
2022-10-17T04:59:26.877Z,16.05
2022-10-17T05:02:05.068Z,18.88
2022-10-17T05:04:35.580Z,16.52
2022-10-17T05:07:02.553Z,20.70
2022-10-17T05:09:35.482Z,17.98
2022-10-17T05:12:04.343Z,16.30
2022-10-17T05:14:34.163Z,17.30
2022-10-17T05:17:01.021Z,15.05
2022-10-17T05:19:28.497Z,15.88
2022-10-17T05:21:55.510Z,16.95
2022-10-17T05:24:23.231Z,17.88
2022-10-17T05:26:51.440Z,15.32
2022-10-17T05:29:18.712Z,16.00
2022-10-17T05:31:50.693Z,15.77
2022-10-17T05:34:18.307Z,15.20
2022-10-17T05:36:45.378Z,16.73
2022-10-17T05:39:14.968Z,16.65
2022-10-17T05:41:42.327Z,15.23
2022-10-17T05:44:09.540Z,14.90
2022-10-17T05:46:50.563Z,16.27
2022-10-17T05:49:31.939Z,15.13
2022-10-17T05:52:05.164Z,15.38
2022-10-17T05:54:44.094Z,15.50
2022-10-17T05:57:11.794Z,14.48
2022-10-17T05:59:40.520Z,15.82
2022-10-17T06:02:13.053Z,15.02
2022-10-17T06:04:45.587Z,14.02
2022-10-17T06:07:13.580Z,14.40
2022-10-17T06:09:42.711Z,14.25
2022-10-17T06:12:10.693Z,15.27
2022-10-17T06:14:37.872Z,14.90
2022-10-17T06:17:06.337Z,15.20
2022-10-17T06:19:33.470Z,14.32
2022-10-17T06:22:00.321Z,14.25
2022-10-17T06:24:28.956Z,14.52
2022-10-17T06:26:57.120Z,14.77
2022-10-17T06:29:24.385Z,14.75
2022-10-17T06:31:52.209Z,13.98
2022-10-17T06:34:20.180Z,14.70
2022-10-17T06:36:47.908Z,15.40
2022-10-17T06:39:15.757Z,14.35
2022-10-17T06:42:04.257Z,15.27
2022-10-17T06:44:45.905Z,14.50
2022-10-17T06:47:32.523Z,15.10
2022-10-17T06:50:05.349Z,15.07
2022-10-17T06:52:41.145Z,14.35
2022-10-17T06:55:28.684Z,14.63
2022-10-17T06:58:12.339Z,14.70
2022-10-17T07:01:06.042Z,15.05
2022-10-17T07:03:34.407Z,16.00
2022-10-17T07:06:01.757Z,15.13
2022-10-17T07:08:28.893Z,15.00
2022-10-17T07:10:56.697Z,15.00
2022-10-17T07:13:23.956Z,15.48
2022-10-17T07:15:51.478Z,15.57
2022-10-17T07:18:18.614Z,15.45
2022-10-17T07:20:53.171Z,14.45
2022-10-17T07:23:20.136Z,14.52
2022-10-17T07:25:47.218Z,14.88
2022-10-17T07:28:16.409Z,15.25
2022-10-17T07:30:44.532Z,15.50
2022-10-17T07:33:12.570Z,14.98
2022-10-17T07:35:41.034Z,15.63
2022-10-17T07:38:08.653Z,14.93
2022-10-17T07:40:35.841Z,14.73
2022-10-17T07:43:02.858Z,15.48
2022-10-17T07:45:30.589Z,16.40
2022-10-17T07:47:58.041Z,15.90
2022-10-17T07:50:25.484Z,15.05
2022-10-17T07:52:52.244Z,15.75
2022-10-17T07:55:19.315Z,14.63
2022-10-17T07:57:46.185Z,15.95
2022-10-17T08:00:13.312Z,14.75
2022-10-17T08:02:41.211Z,15.52
2022-10-17T08:05:08.522Z,15.38
2022-10-17T08:07:35.317Z,14.98
2022-10-17T08:10:02.413Z,14.48
2022-10-17T08:12:32.581Z,14.57
2022-10-17T08:15:03.366Z,14.88
2022-10-17T08:17:30.431Z,14.80
2022-10-17T08:19:57.516Z,14.77
2022-10-17T08:22:24.406Z,14.85
2022-10-17T08:24:51.626Z,14.63
2022-10-17T08:27:24.018Z,15.15
2022-10-17T08:29:54.450Z,14.93
2022-10-17T08:32:23.933Z,14.70
2022-10-17T08:34:51.185Z,14.45
2022-10-17T08:37:17.994Z,14.60
2022-10-17T08:39:45.342Z,14.75
2022-10-17T08:42:57.115Z,14.18
2022-10-17T08:45:30.459Z,13.88
2022-10-17T08:48:03.345Z,14.52
2022-10-17T08:50:48.737Z,15.68
2022-10-17T08:53:23.529Z,13.73
2022-10-17T08:55:52.258Z,15.00
2022-10-17T08:58:22.048Z,14.90
2022-10-17T09:01:13.242Z,15.43
2022-10-17T09:03:59.027Z,15.73
2022-10-17T09:06:30.696Z,15.45
2022-10-17T09:09:31.705Z,15.40
2022-10-17T09:12:21.556Z,15.35
2022-10-17T09:14:54.066Z,15.38
2022-10-17T09:17:27.754Z,15.27
2022-10-17T09:20:02.202Z,16.20
2022-10-17T09:22:35.035Z,14.80
2022-10-17T09:25:06.893Z,14.88
2022-10-17T09:27:41.763Z,15.23
2022-10-17T09:30:40.142Z,13.75
2022-10-17T09:33:28.779Z,15.10
2022-10-17T09:36:05.560Z,15.20
2022-10-17T09:38:56.865Z,15.75
2022-10-17T09:44:22.600Z,14.73
2022-10-17T09:47:00.189Z,15.32
2022-10-17T09:49:35.938Z,15.30
2022-10-17T09:52:05.598Z,14.57
2022-10-17T09:54:59.467Z,16.27
2022-10-17T09:57:26.474Z,15.35
2022-10-17T10:00:01.905Z,15.43
2022-10-17T10:02:31.073Z,14.52
2022-10-17T10:05:16.606Z,14.27
2022-10-17T10:07:46.412Z,13.85
2022-10-17T10:10:28.136Z,14.73
2022-10-17T10:13:04.387Z,15.15
2022-10-17T10:15:38.988Z,13.90
2022-10-17T10:18:35.485Z,14.43
2022-10-17T10:21:23.883Z,13.75
2022-10-17T10:23:59.903Z,13.15
2022-10-17T10:26:30.140Z,13.68
2022-10-17T10:29:00.212Z,14.65
2022-10-17T10:31:30.412Z,13.25
2022-10-17T10:33:59.867Z,13.52
2022-10-17T10:36:42.927Z,14.25
2022-10-17T10:39:23.878Z,13.77
2022-10-17T10:41:51.000Z,13.48
2022-10-17T10:44:19.221Z,14.00
2022-10-17T10:46:46.301Z,14.38
2022-10-17T10:49:32.801Z,13.75
2022-10-17T10:52:00.768Z,13.52
2022-10-17T10:54:37.186Z,14.18
2022-10-17T10:57:07.387Z,13.85
2022-10-17T11:00:09.097Z,12.90
2022-10-17T11:02:44.934Z,14.35
2022-10-17T11:05:39.525Z,13.68
2022-10-17T11:08:17.213Z,13.85
2022-10-17T11:10:52.372Z,12.45
2022-10-17T11:13:28.941Z,13.70
2022-10-17T11:16:04.638Z,14.07
2022-10-17T11:18:49.163Z,13.75
2022-10-17T11:21:20.855Z,14.43
2022-10-17T11:23:52.139Z,13.65
2022-10-17T11:26:26.997Z,13.23
2022-10-17T11:28:55.378Z,12.57
2022-10-17T11:31:24.642Z,12.07
2022-10-17T11:33:58.590Z,12.77
2022-10-17T11:36:31.686Z,12.80
2022-10-17T11:39:02.542Z,13.27
2022-10-17T11:41:39.162Z,14.23
2022-10-17T11:44:26.220Z,13.02
2022-10-17T11:47:00.020Z,13.27
2022-10-17T11:49:34.216Z,13.23
2022-10-17T11:52:51.726Z,12.80
2022-10-17T11:55:24.757Z,13.50
2022-10-17T11:57:54.560Z,13.60
2022-10-17T12:00:57.005Z,13.80
2022-10-17T12:03:35.835Z,14.88
2022-10-17T12:06:19.078Z,14.30
2022-10-17T12:09:11.205Z,12.43
2022-10-17T12:11:56.539Z,15.13
2022-10-17T12:14:32.120Z,13.30
2022-10-17T12:16:59.923Z,13.60
2022-10-17T12:19:30.849Z,11.65
2022-10-17T12:22:20.260Z,11.90
2022-10-17T12:25:03.521Z,12.60
2022-10-17T12:27:33.461Z,12.95
2022-10-17T12:30:20.594Z,12.45
2022-10-17T12:33:05.533Z,12.75
2022-10-17T12:35:34.675Z,13.90
2022-10-17T12:38:22.996Z,12.50
2022-10-17T12:40:55.054Z,12.15
2022-10-17T12:43:27.863Z,12.85
2022-10-17T12:45:56.859Z,13.25
2022-10-17T12:48:59.073Z,12.52
2022-10-17T12:51:35.654Z,12.57
2022-10-17T12:54:07.207Z,12.10
2022-10-17T12:56:44.176Z,12.48
2022-10-17T12:59:22.413Z,11.70
2022-10-17T13:01:52.443Z,14.32
2022-10-17T13:04:19.656Z,12.82
2022-10-17T13:06:54.226Z,12.02
2022-10-17T13:09:35.926Z,11.98
2022-10-17T13:12:04.989Z,12.68
2022-10-17T13:14:33.429Z,13.52
2022-10-17T13:17:06.287Z,12.35
2022-10-17T13:19:46.157Z,12.02
2022-10-17T13:22:19.093Z,12.07
2022-10-17T13:24:46.858Z,12.60
2022-10-17T13:27:30.852Z,12.77
2022-10-17T13:29:59.410Z,12.18
2022-10-17T13:32:29.242Z,14.00
2022-10-17T13:35:12.768Z,13.25
2022-10-17T13:37:44.712Z,13.68
2022-10-17T13:40:44.114Z,12.55
2022-10-17T13:43:17.042Z,12.38
2022-10-17T13:45:53.091Z,12.95
2022-10-17T13:48:25.380Z,13.88
2022-10-17T13:51:01.805Z,13.25
2022-10-17T13:53:29.890Z,13.65
2022-10-17T13:56:15.767Z,14.10
2022-10-17T13:58:47.406Z,15.00
2022-10-17T14:01:15.236Z,14.35
2022-10-17T14:03:48.784Z,14.45
2022-10-17T14:06:17.186Z,15.48
2022-10-17T14:09:02.307Z,15.35
2022-10-17T14:11:34.024Z,15.73
2022-10-17T14:14:02.069Z,14.85
2022-10-17T14:16:40.302Z,15.30
2022-10-17T14:19:25.870Z,14.65
2022-10-17T14:21:55.192Z,15.40
2022-10-17T14:24:21.948Z,57.38
2022-10-17T14:26:49.852Z,69.65
2022-10-17T14:29:28.870Z,51.55
2022-10-17T14:32:05.184Z,80.53
2022-10-17T14:34:37.796Z,66.28
2022-10-17T14:37:17.571Z,61.45
2022-10-17T14:39:49.423Z,136.93
2022-10-17T14:42:19.534Z,68.32
2022-10-17T14:44:49.805Z,48.92
2022-10-17T14:50:13.340Z,39.20
2022-10-17T14:52:40.878Z,41.40
2022-10-17T14:55:25.246Z,82.95
2022-10-17T14:57:52.367Z,95.75
2022-10-17T15:00:21.068Z,109.25
2022-10-17T15:02:49.303Z,146.05
2022-10-17T15:05:17.184Z,82.15
2022-10-17T15:07:44.268Z,42.83
2022-10-17T15:10:23.705Z,21.63
2022-10-17T15:12:58.772Z,39.90
2022-10-17T15:15:31.926Z,41.20
2022-10-17T15:17:59.234Z,36.67
2022-10-17T15:20:28.136Z,21.05
2022-10-17T15:22:55.842Z,18.00
2022-10-17T15:25:23.168Z,17.55
2022-10-17T15:27:50.618Z,17.05
2022-10-17T15:30:22.786Z,18.23
2022-10-17T15:32:50.411Z,18.55
2022-10-17T15:35:17.613Z,20.23
2022-10-17T15:37:46.827Z,22.48
2022-10-17T15:40:18.898Z,25.88
2022-10-17T15:42:46.260Z,32.67
2022-10-17T15:45:17.965Z,37.35
2022-10-17T15:47:57.667Z,41.42
2022-10-17T15:50:24.676Z,43.58
2022-10-17T15:52:52.443Z,49.58
2022-10-17T15:55:19.955Z,46.75
2022-10-17T15:57:48.395Z,37.88
2022-10-17T16:00:23.680Z,106.95
2022-10-17T16:02:51.104Z,154.23
2022-10-17T16:05:23.757Z,108.85
2022-10-17T16:07:50.769Z,319.75
2022-10-17T16:10:18.230Z,183.73
2022-10-17T16:12:46.222Z,119.57
2022-10-17T16:15:19.093Z,59.20
2022-10-17T16:17:46.357Z,91.38
2022-10-17T16:20:13.740Z,46.58
2022-10-17T16:22:43.346Z,80.90
2022-10-17T16:25:23.141Z,343.15
2022-10-17T16:27:52.297Z,294.38
2022-10-17T16:30:19.632Z,98.70
2022-10-17T16:32:47.204Z,84.93
2022-10-17T16:35:20.637Z,107.88
2022-10-17T16:37:48.008Z,124.60
2022-10-17T16:40:16.052Z,84.40
2022-10-17T16:42:43.357Z,97.53
2022-10-17T16:45:17.360Z,99.00
2022-10-17T16:47:44.637Z,142.00
2022-10-17T16:50:11.742Z,86.18
2022-10-17T16:52:38.739Z,107.63
2022-10-17T16:55:06.028Z,148.10
2022-10-17T16:57:33.302Z,128.10
2022-10-17T17:00:00.275Z,102.45
2022-10-17T17:02:27.315Z,126.80
2022-10-17T17:04:54.173Z,81.15
2022-10-17T17:07:22.123Z,65.97
2022-10-17T17:09:49.118Z,93.68
2022-10-17T17:12:16.121Z,75.68
2022-10-17T17:14:43.021Z,96.75
2022-10-17T17:17:15.488Z,82.18
2022-10-17T17:19:51.703Z,106.75
2022-10-17T17:22:18.743Z,117.65
2022-10-17T17:24:45.614Z,81.93
2022-10-17T17:27:13.574Z,89.85
2022-10-17T17:29:40.825Z,91.53
2022-10-17T17:32:07.873Z,85.50
2022-10-17T17:34:38.123Z,63.55
2022-10-17T17:37:05.220Z,87.60
2022-10-17T17:39:32.185Z,95.38
2022-10-17T17:41:59.244Z,58.97
2022-10-17T17:44:26.112Z,76.70
2022-10-17T17:46:53.187Z,71.90
2022-10-17T17:49:20.201Z,375.73
2022-10-17T17:51:47.430Z,101.95
2022-10-17T17:54:14.626Z,66.60
2022-10-17T17:56:41.869Z,59.75
2022-10-17T17:59:11.805Z,53.90
2022-10-17T18:01:39.449Z,91.65
2022-10-17T18:04:08.710Z,73.78
2022-10-17T18:06:37.440Z,65.40
2022-10-17T18:09:04.907Z,66.75
2022-10-17T18:11:32.088Z,62.97
2022-10-17T18:14:00.922Z,73.75
2022-10-17T18:16:29.443Z,224.25
2022-10-17T18:18:56.853Z,52.80
2022-10-17T18:21:24.126Z,64.13
2022-10-17T18:23:51.919Z,156.52
2022-10-17T18:26:19.548Z,101.40
2022-10-17T18:28:46.924Z,45.72
2022-10-17T18:31:18.971Z,41.60
2022-10-17T18:33:46.380Z,36.25
2022-10-17T18:36:15.674Z,64.53
2022-10-17T18:38:42.866Z,55.30
2022-10-17T18:41:12.721Z,45.75
2022-10-17T18:43:41.753Z,64.97
2022-10-17T18:46:14.008Z,50.85
2022-10-17T18:48:44.593Z,53.42
2022-10-17T18:51:13.697Z,52.55
2022-10-17T18:53:46.732Z,142.18
2022-10-17T18:56:14.314Z,121.40
2022-10-17T18:58:41.287Z,38.45
2022-10-17T19:01:11.191Z,35.70
2022-10-17T19:03:38.235Z,47.17
2022-10-17T19:06:07.504Z,50.45
2022-10-17T19:08:35.585Z,86.20
2022-10-17T19:11:30.123Z,72.90
2022-10-17T19:13:58.463Z,55.85
2022-10-17T19:16:30.872Z,74.70
2022-10-17T19:19:01.620Z,81.65
2022-10-17T19:21:28.955Z,57.05
2022-10-17T19:24:00.672Z,72.95
2022-10-17T19:26:29.341Z,82.35
2022-10-17T19:28:56.495Z,79.97
2022-10-17T19:31:27.003Z,83.88
2022-10-17T19:33:55.265Z,86.50
2022-10-17T19:36:27.525Z,83.88
2022-10-17T19:38:58.171Z,66.55
2022-10-17T19:41:26.142Z,81.78
2022-10-17T19:43:52.972Z,56.00
2022-10-17T19:46:22.063Z,62.38
2022-10-17T19:48:49.792Z,80.25
2022-10-17T19:51:19.810Z,59.05
2022-10-17T19:53:47.253Z,79.13
2022-10-17T19:56:18.535Z,79.10
2022-10-17T19:58:46.923Z,77.25
2022-10-17T20:01:16.755Z,54.22
2022-10-17T20:03:43.713Z,51.67
2022-10-17T20:06:10.993Z,59.70
2022-10-17T20:08:38.795Z,50.65
2022-10-17T20:11:17.139Z,78.28
2022-10-17T20:13:44.929Z,104.35
2022-10-17T20:16:14.892Z,61.53
2022-10-17T20:18:42.253Z,93.50
2022-10-17T20:21:12.501Z,95.95
2022-10-17T20:23:39.925Z,106.30
2022-10-17T20:26:26.050Z,110.07
2022-10-17T20:29:00.576Z,96.43
2022-10-17T20:31:27.631Z,84.82
2022-10-17T20:33:58.917Z,73.50
2022-10-17T20:36:26.511Z,62.75
2022-10-17T20:38:57.727Z,58.30
2022-10-17T20:41:25.890Z,51.60
2022-10-17T20:43:54.334Z,54.92
2022-10-17T20:46:36.220Z,26.58
2022-10-17T20:49:05.676Z,34.33
2022-10-17T20:51:33.243Z,27.17
2022-10-17T20:54:00.144Z,61.63
2022-10-17T20:56:29.286Z,52.60
2022-10-17T20:59:02.050Z,48.17
2022-10-17T21:01:30.856Z,74.97
2022-10-17T21:04:02.609Z,47.53
2022-10-17T21:06:43.162Z,49.08
2022-10-17T21:09:10.061Z,38.95
2022-10-17T21:11:37.066Z,46.80
2022-10-17T21:14:05.464Z,37.20
2022-10-17T21:16:34.505Z,32.72
2022-10-17T21:19:02.251Z,28.52
2022-10-17T21:21:31.741Z,33.55
2022-10-17T21:24:00.816Z,42.78
2022-10-17T21:26:28.374Z,42.10
2022-10-17T21:28:55.662Z,47.22
2022-10-17T21:31:24.800Z,36.40
2022-10-17T21:33:53.833Z,47.85
2022-10-17T21:36:22.072Z,35.40
2022-10-17T21:38:50.348Z,31.35
2022-10-17T21:41:20.707Z,53.90
2022-10-17T21:43:48.276Z,29.98
2022-10-17T21:46:17.480Z,35.58
2022-10-17T21:48:45.203Z,32.08
2022-10-17T21:51:14.676Z,34.25
2022-10-17T21:53:41.881Z,24.48
2022-10-17T21:56:14.212Z,31.23
2022-10-17T21:58:41.799Z,29.52
2022-10-17T22:01:12.404Z,22.10
2022-10-17T22:03:44.112Z,20.58
2022-10-17T22:06:39.258Z,22.30
2022-10-17T22:09:09.914Z,37.13
2022-10-17T22:11:36.940Z,33.50
2022-10-17T22:14:06.393Z,25.90
2022-10-17T22:16:34.214Z,26.42
2022-10-17T22:19:05.901Z,23.13
2022-10-17T22:21:35.603Z,26.80
2022-10-17T22:24:04.648Z,28.40
2022-10-17T22:26:33.232Z,30.38
2022-10-17T22:29:00.758Z,21.23
2022-10-17T22:31:27.965Z,18.23
2022-10-17T22:33:55.702Z,21.42
2022-10-17T22:36:22.908Z,17.27
2022-10-17T22:38:49.735Z,17.90
2022-10-17T22:41:17.294Z,20.02
2022-10-17T22:43:44.101Z,23.00
2022-10-17T22:46:13.078Z,19.92
2022-10-17T22:48:40.239Z,22.35
2022-10-17T22:51:07.492Z,22.73
2022-10-17T22:53:35.221Z,22.77
2022-10-17T22:56:05.631Z,27.65
2022-10-17T22:58:34.187Z,25.35
2022-10-17T23:01:01.969Z,24.63
2022-10-17T23:03:29.930Z,22.33
2022-10-17T23:05:57.570Z,21.98
2022-10-17T23:08:24.937Z,28.08
2022-10-17T23:10:52.436Z,18.65
2022-10-17T23:13:21.260Z,18.88
2022-10-17T23:15:56.125Z,19.25
2022-10-17T23:18:24.547Z,21.75
2022-10-17T23:20:51.713Z,24.50
2022-10-17T23:23:19.403Z,28.33
2022-10-17T23:25:46.682Z,25.35
2022-10-17T23:28:13.979Z,33.78
2022-10-17T23:30:41.221Z,35.13
2022-10-17T23:33:10.785Z,30.92
2022-10-17T23:35:37.925Z,41.65
2022-10-17T23:38:04.763Z,37.28
2022-10-17T23:40:31.836Z,57.42
2022-10-17T23:42:58.932Z,41.55
2022-10-17T23:45:25.993Z,27.98
2022-10-17T23:47:52.945Z,35.53
2022-10-17T23:50:20.119Z,21.75
2022-10-17T23:52:46.966Z,18.85
2022-10-17T23:55:14.091Z,21.23
2022-10-17T23:57:40.960Z,17.98
